sensor_id;sensor_type;location;lat;lon;timestamp;P1;durP1;ratioP1;P2;durP2;ratioP2
52786;SDS011;38661;53.152;5.846;2023-03-31T00:01:28;35.55;;;7.65;;
52786;SDS011;38661;53.152;5.846;2023-03-31T00:03:54;52.10;;;10.50;;
52786;SDS011;38661;53.152;5.846;2023-03-31T00:06:26;32.53;;;7.05;;
52786;SDS011;38661;53.152;5.846;2023-03-31T00:08:52;32.88;;;7.15;;
52786;SDS011;38661;53.152;5.846;2023-03-31T00:11:22;34.35;;;7.03;;
52786;SDS011;38661;53.152;5.846;2023-03-31T00:13:47;38.05;;;8.95;;
52786;SDS011;38661;53.152;5.846;2023-03-31T00:16:13;36.38;;;8.27;;
52786;SDS011;38661;53.152;5.846;2023-03-31T00:18:39;38.33;;;7.18;;
52786;SDS011;38661;53.152;5.846;2023-03-31T00:21:15;32.78;;;7.20;;
52786;SDS011;38661;53.152;5.846;2023-03-31T00:23:55;41.92;;;7.95;;
52786;SDS011;38661;53.152;5.846;2023-03-31T00:26:23;32.67;;;6.73;;
52786;SDS011;38661;53.152;5.846;2023-03-31T00:28:50;30.73;;;7.43;;
52786;SDS011;38661;53.152;5.846;2023-03-31T00:31:17;30.70;;;5.93;;
52786;SDS011;38661;53.152;5.846;2023-03-31T00:33:43;35.17;;;6.88;;
52786;SDS011;38661;53.152;5.846;2023-03-31T00:36:09;37.83;;;7.20;;
52786;SDS011;38661;53.152;5.846;2023-03-31T00:38:35;32.35;;;7.38;;
52786;SDS011;38661;53.152;5.846;2023-03-31T00:41:01;34.05;;;6.72;;
52786;SDS011;38661;53.152;5.846;2023-03-31T00:43:31;30.55;;;7.10;;
52786;SDS011;38661;53.152;5.846;2023-03-31T00:46:04;33.60;;;7.38;;
52786;SDS011;38661;53.152;5.846;2023-03-31T00:48:33;35.15;;;8.18;;
52786;SDS011;38661;53.152;5.846;2023-03-31T00:51:03;27.67;;;5.97;;
52786;SDS011;38661;53.152;5.846;2023-03-31T00:53:31;30.35;;;6.40;;
52786;SDS011;38661;53.152;5.846;2023-03-31T00:56:05;47.42;;;9.10;;
52786;SDS011;38661;53.152;5.846;2023-03-31T00:58:36;41.20;;;8.13;;
52786;SDS011;38661;53.152;5.846;2023-03-31T01:01:08;30.83;;;6.80;;
52786;SDS011;38661;53.152;5.846;2023-03-31T01:03:38;29.95;;;6.88;;
52786;SDS011;38661;53.152;5.846;2023-03-31T01:06:06;28.30;;;6.57;;
52786;SDS011;38661;53.152;5.846;2023-03-31T01:08:34;32.40;;;6.72;;
52786;SDS011;38661;53.152;5.846;2023-03-31T01:11:03;36.28;;;6.93;;
52786;SDS011;38661;53.152;5.846;2023-03-31T01:13:31;38.83;;;7.10;;
52786;SDS011;38661;53.152;5.846;2023-03-31T01:16:00;30.10;;;6.38;;
52786;SDS011;38661;53.152;5.846;2023-03-31T01:18:26;34.83;;;7.22;;
52786;SDS011;38661;53.152;5.846;2023-03-31T01:27:00;32.00;;;6.72;;
52786;SDS011;38661;53.152;5.846;2023-03-31T01:32:45;30.48;;;6.80;;
52786;SDS011;38661;53.152;5.846;2023-03-31T01:43:57;36.38;;;7.55;;
52786;SDS011;38661;53.152;5.846;2023-03-31T01:46:52;24.83;;;5.97;;
52786;SDS011;38661;53.152;5.846;2023-03-31T01:51:59;32.40;;;6.30;;
52786;SDS011;38661;53.152;5.846;2023-03-31T01:59:44;29.13;;;5.80;;
52786;SDS011;38661;53.152;5.846;2023-03-31T02:02:25;26.25;;;5.30;;
52786;SDS011;38661;53.152;5.846;2023-03-31T02:04:58;23.55;;;5.97;;
52786;SDS011;38661;53.152;5.846;2023-03-31T02:07:33;33.67;;;8.25;;
52786;SDS011;38661;53.152;5.846;2023-03-31T02:10:06;29.50;;;6.22;;
52786;SDS011;38661;53.152;5.846;2023-03-31T02:12:34;28.25;;;6.80;;
52786;SDS011;38661;53.152;5.846;2023-03-31T02:15:04;25.73;;;5.63;;
52786;SDS011;38661;53.152;5.846;2023-03-31T02:17:34;35.10;;;6.65;;
52786;SDS011;38661;53.152;5.846;2023-03-31T02:20:05;30.88;;;5.45;;
52786;SDS011;38661;53.152;5.846;2023-03-31T02:22:41;27.45;;;4.88;;
52786;SDS011;38661;53.152;5.846;2023-03-31T02:25:11;28.45;;;7.20;;
52786;SDS011;38661;53.152;5.846;2023-03-31T02:27:41;26.42;;;5.43;;
52786;SDS011;38661;53.152;5.846;2023-03-31T02:30:10;32.28;;;7.25;;
52786;SDS011;38661;53.152;5.846;2023-03-31T02:32:40;30.02;;;7.63;;
52786;SDS011;38661;53.152;5.846;2023-03-31T02:35:16;27.73;;;5.63;;
52786;SDS011;38661;53.152;5.846;2023-03-31T02:37:44;25.38;;;4.45;;
52786;SDS011;38661;53.152;5.846;2023-03-31T02:40:16;28.05;;;5.13;;
52786;SDS011;38661;53.152;5.846;2023-03-31T02:42:44;27.73;;;6.57;;
52786;SDS011;38661;53.152;5.846;2023-03-31T03:07:35;24.80;;;5.57;;
52786;SDS011;38661;53.152;5.846;2023-03-31T03:13:33;21.50;;;4.53;;
52786;SDS011;38661;53.152;5.846;2023-03-31T03:16:12;22.02;;;5.15;;
52786;SDS011;38661;53.152;5.846;2023-03-31T03:18:58;24.15;;;5.13;;
52786;SDS011;38661;53.152;5.846;2023-03-31T03:21:26;31.30;;;6.05;;
52786;SDS011;38661;53.152;5.846;2023-03-31T03:23:53;22.30;;;4.90;;
52786;SDS011;38661;53.152;5.846;2023-03-31T03:26:19;24.00;;;5.05;;
52786;SDS011;38661;53.152;5.846;2023-03-31T03:28:47;23.13;;;5.70;;
52786;SDS011;38661;53.152;5.846;2023-03-31T03:31:13;23.48;;;5.55;;
52786;SDS011;38661;53.152;5.846;2023-03-31T03:33:40;22.58;;;5.25;;
52786;SDS011;38661;53.152;5.846;2023-03-31T03:36:06;21.85;;;4.93;;
52786;SDS011;38661;53.152;5.846;2023-03-31T03:38:32;19.52;;;5.80;;
52786;SDS011;38661;53.152;5.846;2023-03-31T03:40:58;22.48;;;5.88;;
52786;SDS011;38661;53.152;5.846;2023-03-31T03:43:23;25.77;;;5.47;;
52786;SDS011;38661;53.152;5.846;2023-03-31T03:45:50;24.10;;;6.00;;
52786;SDS011;38661;53.152;5.846;2023-03-31T03:48:16;25.63;;;6.22;;
52786;SDS011;38661;53.152;5.846;2023-03-31T03:50:46;23.92;;;6.43;;
52786;SDS011;38661;53.152;5.846;2023-03-31T03:53:13;26.52;;;7.05;;
52786;SDS011;38661;53.152;5.846;2023-03-31T03:55:39;21.90;;;5.97;;
52786;SDS011;38661;53.152;5.846;2023-03-31T03:58:05;29.95;;;8.25;;
52786;SDS011;38661;53.152;5.846;2023-03-31T04:00:31;20.38;;;6.07;;
52786;SDS011;38661;53.152;5.846;2023-03-31T04:02:57;20.13;;;6.85;;
52786;SDS011;38661;53.152;5.846;2023-03-31T04:05:22;20.63;;;8.48;;
52786;SDS011;38661;53.152;5.846;2023-03-31T04:07:48;23.88;;;6.70;;
52786;SDS011;38661;53.152;5.846;2023-03-31T04:10:14;20.42;;;6.30;;
52786;SDS011;38661;53.152;5.846;2023-03-31T04:12:39;25.27;;;7.57;;
52786;SDS011;38661;53.152;5.846;2023-03-31T04:15:05;19.38;;;7.35;;
52786;SDS011;38661;53.152;5.846;2023-03-31T04:17:31;21.55;;;7.15;;
52786;SDS011;38661;53.152;5.846;2023-03-31T04:20:08;20.73;;;7.30;;
52786;SDS011;38661;53.152;5.846;2023-03-31T04:22:35;17.63;;;7.10;;
52786;SDS011;38661;53.152;5.846;2023-03-31T04:25:09;21.25;;;7.07;;
52786;SDS011;38661;53.152;5.846;2023-03-31T04:30:13;15.70;;;7.15;;
52786;SDS011;38661;53.152;5.846;2023-03-31T04:32:49;21.90;;;7.70;;
52786;SDS011;38661;53.152;5.846;2023-03-31T04:35:16;28.65;;;12.35;;
52786;SDS011;38661;53.152;5.846;2023-03-31T04:37:46;20.45;;;9.05;;
52786;SDS011;38661;53.152;5.846;2023-03-31T04:40:12;24.25;;;10.90;;
52786;SDS011;38661;53.152;5.846;2023-03-31T04:42:38;23.45;;;9.32;;
52786;SDS011;38661;53.152;5.846;2023-03-31T04:45:03;22.25;;;8.93;;
52786;SDS011;38661;53.152;5.846;2023-03-31T04:47:29;26.95;;;9.52;;
52786;SDS011;38661;53.152;5.846;2023-03-31T04:49:55;25.00;;;9.85;;
52786;SDS011;38661;53.152;5.846;2023-03-31T04:52:21;25.98;;;9.13;;
52786;SDS011;38661;53.152;5.846;2023-03-31T04:54:47;21.73;;;8.45;;
52786;SDS011;38661;53.152;5.846;2023-03-31T04:57:12;20.65;;;8.40;;
52786;SDS011;38661;53.152;5.846;2023-03-31T04:59:38;24.40;;;9.43;;
52786;SDS011;38661;53.152;5.846;2023-03-31T05:02:04;23.10;;;9.85;;
52786;SDS011;38661;53.152;5.846;2023-03-31T05:04:30;22.70;;;10.40;;
52786;SDS011;38661;53.152;5.846;2023-03-31T05:06:55;25.02;;;9.98;;
52786;SDS011;38661;53.152;5.846;2023-03-31T05:09:21;21.90;;;9.75;;
52786;SDS011;38661;53.152;5.846;2023-03-31T05:11:47;22.58;;;9.07;;
52786;SDS011;38661;53.152;5.846;2023-03-31T05:14:13;21.33;;;10.32;;
52786;SDS011;38661;53.152;5.846;2023-03-31T05:16:39;21.45;;;9.45;;
52786;SDS011;38661;53.152;5.846;2023-03-31T05:19:06;22.90;;;9.25;;
52786;SDS011;38661;53.152;5.846;2023-03-31T05:21:32;18.92;;;8.70;;
52786;SDS011;38661;53.152;5.846;2023-03-31T05:23:57;24.63;;;9.35;;
52786;SDS011;38661;53.152;5.846;2023-03-31T05:26:23;21.60;;;8.40;;
52786;SDS011;38661;53.152;5.846;2023-03-31T05:28:53;19.45;;;8.10;;
52786;SDS011;38661;53.152;5.846;2023-03-31T05:31:18;25.88;;;10.63;;
52786;SDS011;38661;53.152;5.846;2023-03-31T05:33:44;20.17;;;9.15;;
52786;SDS011;38661;53.152;5.846;2023-03-31T05:36:11;21.55;;;9.38;;
52786;SDS011;38661;53.152;5.846;2023-03-31T05:38:39;22.42;;;11.15;;
52786;SDS011;38661;53.152;5.846;2023-03-31T05:41:06;22.50;;;9.75;;
52786;SDS011;38661;53.152;5.846;2023-03-31T05:43:33;24.90;;;10.05;;
52786;SDS011;38661;53.152;5.846;2023-03-31T05:46:00;23.33;;;10.05;;
52786;SDS011;38661;53.152;5.846;2023-03-31T05:48:26;19.63;;;9.75;;
52786;SDS011;38661;53.152;5.846;2023-03-31T05:50:55;23.73;;;10.55;;
52786;SDS011;38661;53.152;5.846;2023-03-31T05:53:22;21.77;;;9.82;;
52786;SDS011;38661;53.152;5.846;2023-03-31T05:55:48;23.23;;;9.63;;
52786;SDS011;38661;53.152;5.846;2023-03-31T05:58:13;19.13;;;8.63;;
52786;SDS011;38661;53.152;5.846;2023-03-31T06:00:39;16.30;;;8.32;;
52786;SDS011;38661;53.152;5.846;2023-03-31T06:03:05;20.55;;;9.00;;
52786;SDS011;38661;53.152;5.846;2023-03-31T06:05:32;24.13;;;9.30;;
52786;SDS011;38661;53.152;5.846;2023-03-31T06:07:58;19.55;;;9.50;;
52786;SDS011;38661;53.152;5.846;2023-03-31T06:10:24;20.35;;;8.02;;
52786;SDS011;38661;53.152;5.846;2023-03-31T06:12:50;19.85;;;9.68;;
52786;SDS011;38661;53.152;5.846;2023-03-31T06:15:16;19.65;;;10.00;;
52786;SDS011;38661;53.152;5.846;2023-03-31T06:17:41;19.40;;;9.77;;
52786;SDS011;38661;53.152;5.846;2023-03-31T06:20:07;23.25;;;9.68;;
52786;SDS011;38661;53.152;5.846;2023-03-31T06:22:33;16.85;;;9.40;;
52786;SDS011;38661;53.152;5.846;2023-03-31T06:24:59;17.83;;;9.68;;
52786;SDS011;38661;53.152;5.846;2023-03-31T06:27:25;19.60;;;9.13;;
52786;SDS011;38661;53.152;5.846;2023-03-31T06:29:50;18.35;;;9.18;;
52786;SDS011;38661;53.152;5.846;2023-03-31T06:32:16;15.05;;;7.60;;
52786;SDS011;38661;53.152;5.846;2023-03-31T06:34:42;12.98;;;7.90;;
52786;SDS011;38661;53.152;5.846;2023-03-31T06:37:07;15.32;;;8.02;;
52786;SDS011;38661;53.152;5.846;2023-03-31T06:39:33;12.77;;;7.30;;
52786;SDS011;38661;53.152;5.846;2023-03-31T06:41:59;12.65;;;7.47;;
52786;SDS011;38661;53.152;5.846;2023-03-31T06:44:24;15.52;;;6.40;;
52786;SDS011;38661;53.152;5.846;2023-03-31T06:46:50;11.63;;;6.45;;
52786;SDS011;38661;53.152;5.846;2023-03-31T06:49:16;9.95;;;5.55;;
52786;SDS011;38661;53.152;5.846;2023-03-31T06:51:41;15.25;;;5.40;;
52786;SDS011;38661;53.152;5.846;2023-03-31T06:54:07;13.15;;;5.75;;
52786;SDS011;38661;53.152;5.846;2023-03-31T06:56:33;11.85;;;4.88;;
52786;SDS011;38661;53.152;5.846;2023-03-31T06:58:59;8.48;;;4.82;;
52786;SDS011;38661;53.152;5.846;2023-03-31T07:01:24;9.32;;;4.82;;
52786;SDS011;38661;53.152;5.846;2023-03-31T07:03:50;8.32;;;4.65;;
52786;SDS011;38661;53.152;5.846;2023-03-31T07:06:16;10.48;;;3.95;;
52786;SDS011;38661;53.152;5.846;2023-03-31T07:08:41;9.77;;;4.00;;
52786;SDS011;38661;53.152;5.846;2023-03-31T07:11:07;8.88;;;3.83;;
52786;SDS011;38661;53.152;5.846;2023-03-31T07:13:33;8.02;;;4.00;;
52786;SDS011;38661;53.152;5.846;2023-03-31T07:15:58;12.80;;;5.15;;
52786;SDS011;38661;53.152;5.846;2023-03-31T07:18:24;8.23;;;3.80;;
52786;SDS011;38661;53.152;5.846;2023-03-31T07:20:56;8.15;;;4.40;;
52786;SDS011;38661;53.152;5.846;2023-03-31T07:23:23;10.27;;;4.18;;
52786;SDS011;38661;53.152;5.846;2023-03-31T07:25:48;7.47;;;4.18;;
52786;SDS011;38661;53.152;5.846;2023-03-31T07:28:14;9.82;;;4.60;;
52786;SDS011;38661;53.152;5.846;2023-03-31T07:30:41;11.07;;;4.32;;
52786;SDS011;38661;53.152;5.846;2023-03-31T07:33:06;9.73;;;4.13;;
52786;SDS011;38661;53.152;5.846;2023-03-31T07:35:33;9.63;;;4.00;;
52786;SDS011;38661;53.152;5.846;2023-03-31T07:38:01;10.05;;;3.70;;
52786;SDS011;38661;53.152;5.846;2023-03-31T07:40:27;7.05;;;3.95;;
52786;SDS011;38661;53.152;5.846;2023-03-31T07:42:53;8.27;;;3.72;;
52786;SDS011;38661;53.152;5.846;2023-03-31T07:45:20;10.68;;;4.60;;
52786;SDS011;38661;53.152;5.846;2023-03-31T07:47:48;9.88;;;4.55;;
52786;SDS011;38661;53.152;5.846;2023-03-31T07:50:14;12.80;;;4.95;;
52786;SDS011;38661;53.152;5.846;2023-03-31T07:52:40;8.68;;;5.15;;
52786;SDS011;38661;53.152;5.846;2023-03-31T07:55:07;8.60;;;4.20;;
52786;SDS011;38661;53.152;5.846;2023-03-31T07:57:33;11.75;;;4.45;;
52786;SDS011;38661;53.152;5.846;2023-03-31T08:00:00;6.90;;;4.13;;
52786;SDS011;38661;53.152;5.846;2023-03-31T08:02:30;8.18;;;4.82;;
52786;SDS011;38661;53.152;5.846;2023-03-31T08:04:56;13.23;;;4.93;;
52786;SDS011;38661;53.152;5.846;2023-03-31T08:07:22;10.20;;;5.30;;
52786;SDS011;38661;53.152;5.846;2023-03-31T08:09:48;8.18;;;4.90;;
52786;SDS011;38661;53.152;5.846;2023-03-31T08:12:14;11.32;;;6.07;;
52786;SDS011;38661;53.152;5.846;2023-03-31T08:14:40;9.95;;;5.90;;
52786;SDS011;38661;53.152;5.846;2023-03-31T08:17:06;8.95;;;4.97;;
52786;SDS011;38661;53.152;5.846;2023-03-31T08:19:32;10.48;;;5.00;;
52786;SDS011;38661;53.152;5.846;2023-03-31T08:21:58;7.95;;;4.82;;
52786;SDS011;38661;53.152;5.846;2023-03-31T08:24:23;8.73;;;5.13;;
52786;SDS011;38661;53.152;5.846;2023-03-31T08:26:49;11.65;;;5.95;;
52786;SDS011;38661;53.152;5.846;2023-03-31T08:29:15;10.52;;;5.72;;
52786;SDS011;38661;53.152;5.846;2023-03-31T08:31:40;11.23;;;5.70;;
52786;SDS011;38661;53.152;5.846;2023-03-31T08:34:06;9.07;;;5.65;;
52786;SDS011;38661;53.152;5.846;2023-03-31T08:36:32;8.70;;;5.22;;
52786;SDS011;38661;53.152;5.846;2023-03-31T08:38:57;11.60;;;6.18;;
52786;SDS011;38661;53.152;5.846;2023-03-31T08:41:26;9.68;;;4.85;;
52786;SDS011;38661;53.152;5.846;2023-03-31T08:47:01;10.90;;;5.10;;
52786;SDS011;38661;53.152;5.846;2023-03-31T08:49:38;12.07;;;4.93;;
52786;SDS011;38661;53.152;5.846;2023-03-31T08:52:10;9.38;;;4.88;;
52786;SDS011;38661;53.152;5.846;2023-03-31T08:54:43;9.32;;;5.28;;
52786;SDS011;38661;53.152;5.846;2023-03-31T08:57:20;10.70;;;5.55;;
52786;SDS011;38661;53.152;5.846;2023-03-31T08:59:53;11.13;;;5.40;;
52786;SDS011;38661;53.152;5.846;2023-03-31T09:02:30;12.48;;;5.15;;
52786;SDS011;38661;53.152;5.846;2023-03-31T09:05:29;10.27;;;4.97;;
52786;SDS011;38661;53.152;5.846;2023-03-31T09:11:05;9.88;;;4.70;;
52786;SDS011;38661;53.152;5.846;2023-03-31T09:18:52;8.48;;;4.38;;
52786;SDS011;38661;53.152;5.846;2023-03-31T09:24:02;9.80;;;5.43;;
52786;SDS011;38661;53.152;5.846;2023-03-31T09:29:09;9.57;;;3.95;;
52786;SDS011;38661;53.152;5.846;2023-03-31T09:31:43;5.93;;;2.88;;
52786;SDS011;38661;53.152;5.846;2023-03-31T09:34:29;6.65;;;3.15;;
52786;SDS011;38661;53.152;5.846;2023-03-31T09:36:57;8.25;;;3.40;;
52786;SDS011;38661;53.152;5.846;2023-03-31T09:39:23;9.02;;;2.70;;
52786;SDS011;38661;53.152;5.846;2023-03-31T09:41:49;4.28;;;2.50;;
52786;SDS011;38661;53.152;5.846;2023-03-31T09:47:02;7.57;;;3.55;;
52786;SDS011;38661;53.152;5.846;2023-03-31T09:49:32;7.70;;;4.07;;
52786;SDS011;38661;53.152;5.846;2023-03-31T09:52:01;10.18;;;7.05;;
52786;SDS011;38661;53.152;5.846;2023-03-31T09:54:37;8.65;;;4.50;;
52786;SDS011;38661;53.152;5.846;2023-03-31T09:57:13;16.08;;;12.88;;
52786;SDS011;38661;53.152;5.846;2023-03-31T10:00:13;13.57;;;6.95;;
52786;SDS011;38661;53.152;5.846;2023-03-31T10:02:41;8.68;;;4.28;;
52786;SDS011;38661;53.152;5.846;2023-03-31T10:05:35;11.13;;;5.72;;
52786;SDS011;38661;53.152;5.846;2023-03-31T10:13:08;11.07;;;4.90;;
52786;SDS011;38661;53.152;5.846;2023-03-31T10:15:38;12.75;;;4.32;;
52786;SDS011;38661;53.152;5.846;2023-03-31T10:18:04;8.65;;;4.88;;
52786;SDS011;38661;53.152;5.846;2023-03-31T10:22:58;11.77;;;5.90;;
52786;SDS011;38661;53.152;5.846;2023-03-31T10:25:45;9.27;;;4.25;;
52786;SDS011;38661;53.152;5.846;2023-03-31T10:28:14;10.65;;;5.38;;
52786;SDS011;38661;53.152;5.846;2023-03-31T10:30:45;14.25;;;7.50;;
52786;SDS011;38661;53.152;5.846;2023-03-31T10:33:25;10.70;;;4.47;;
52786;SDS011;38661;53.152;5.846;2023-03-31T10:36:07;15.75;;;5.35;;
52786;SDS011;38661;53.152;5.846;2023-03-31T10:38:43;7.53;;;4.55;;
52786;SDS011;38661;53.152;5.846;2023-03-31T10:41:11;10.57;;;4.60;;
52786;SDS011;38661;53.152;5.846;2023-03-31T10:43:52;8.98;;;3.95;;
52786;SDS011;38661;53.152;5.846;2023-03-31T10:46:20;8.85;;;4.85;;
52786;SDS011;38661;53.152;5.846;2023-03-31T10:49:12;14.52;;;6.45;;
52786;SDS011;38661;53.152;5.846;2023-03-31T10:51:47;9.65;;;4.35;;
52786;SDS011;38661;53.152;5.846;2023-03-31T10:54:20;9.90;;;4.30;;
52786;SDS011;38661;53.152;5.846;2023-03-31T10:56:47;13.10;;;5.55;;
52786;SDS011;38661;53.152;5.846;2023-03-31T11:13:26;13.77;;;4.40;;
52786;SDS011;38661;53.152;5.846;2023-03-31T11:31:50;6.18;;;2.53;;
52786;SDS011;38661;53.152;5.846;2023-03-31T11:45:30;7.93;;;2.78;;
52786;SDS011;38661;53.152;5.846;2023-03-31T11:48:04;8.50;;;3.38;;
52786;SDS011;38661;53.152;5.846;2023-03-31T11:50:38;9.90;;;3.20;;
52786;SDS011;38661;53.152;5.846;2023-03-31T11:53:18;9.10;;;3.22;;
52786;SDS011;38661;53.152;5.846;2023-03-31T11:55:49;9.75;;;3.00;;
52786;SDS011;38661;53.152;5.846;2023-03-31T11:58:21;9.32;;;3.17;;
52786;SDS011;38661;53.152;5.846;2023-03-31T12:00:55;8.48;;;2.75;;
52786;SDS011;38661;53.152;5.846;2023-03-31T12:03:42;8.02;;;3.05;;
52786;SDS011;38661;53.152;5.846;2023-03-31T12:06:27;8.55;;;3.33;;
52786;SDS011;38661;53.152;5.846;2023-03-31T12:11:53;11.00;;;4.38;;
52786;SDS011;38661;53.152;5.846;2023-03-31T12:15:01;10.13;;;4.15;;
52786;SDS011;38661;53.152;5.846;2023-03-31T12:17:37;13.50;;;4.38;;
52786;SDS011;38661;53.152;5.846;2023-03-31T12:20:10;15.13;;;6.15;;
52786;SDS011;38661;53.152;5.846;2023-03-31T12:22:52;15.45;;;6.63;;
52786;SDS011;38661;53.152;5.846;2023-03-31T12:25:21;13.32;;;6.82;;
52786;SDS011;38661;53.152;5.846;2023-03-31T12:27:47;21.52;;;9.90;;
52786;SDS011;38661;53.152;5.846;2023-03-31T12:32:43;23.02;;;11.18;;
52786;SDS011;38661;53.152;5.846;2023-03-31T12:35:25;88.63;;;58.67;;
52786;SDS011;38661;53.152;5.846;2023-03-31T12:41:34;30.38;;;19.08;;
52786;SDS011;38661;53.152;5.846;2023-03-31T12:43:57;39.05;;;23.52;;
52786;SDS011;38661;53.152;5.846;2023-03-31T13:08:56;12.73;;;5.97;;
52786;SDS011;38661;53.152;5.846;2023-03-31T13:27:54;6.47;;;2.33;;
52786;SDS011;38661;53.152;5.846;2023-03-31T13:33:04;8.85;;;2.45;;
52786;SDS011;38661;53.152;5.846;2023-03-31T13:35:34;9.93;;;2.70;;
52786;SDS011;38661;53.152;5.846;2023-03-31T13:38:12;5.68;;;1.95;;
52786;SDS011;38661;53.152;5.846;2023-03-31T13:41:06;4.68;;;2.40;;
52786;SDS011;38661;53.152;5.846;2023-03-31T13:46:50;4.00;;;1.20;;
52786;SDS011;38661;53.152;5.846;2023-03-31T13:49:48;6.15;;;1.80;;
52786;SDS011;38661;53.152;5.846;2023-03-31T13:52:18;6.93;;;1.98;;
52786;SDS011;38661;53.152;5.846;2023-03-31T13:57:51;5.57;;;1.80;;
52786;SDS011;38661;53.152;5.846;2023-03-31T14:00:55;11.18;;;2.13;;
52786;SDS011;38661;53.152;5.846;2023-03-31T14:09:27;8.32;;;2.95;;
52786;SDS011;38661;53.152;5.846;2023-03-31T14:11:59;9.27;;;3.20;;
52786;SDS011;38661;53.152;5.846;2023-03-31T14:14:26;7.88;;;2.20;;
52786;SDS011;38661;53.152;5.846;2023-03-31T14:16:58;8.73;;;3.55;;
52786;SDS011;38661;53.152;5.846;2023-03-31T14:27:58;6.90;;;1.65;;
52786;SDS011;38661;53.152;5.846;2023-03-31T14:30:49;7.85;;;4.47;;
52786;SDS011;38661;53.152;5.846;2023-03-31T14:33:30;6.63;;;2.75;;
52786;SDS011;38661;53.152;5.846;2023-03-31T14:39:10;28.85;;;18.52;;
52786;SDS011;38661;53.152;5.846;2023-03-31T14:41:38;10.25;;;5.65;;
52786;SDS011;38661;53.152;5.846;2023-03-31T14:44:06;6.13;;;3.13;;
52786;SDS011;38661;53.152;5.846;2023-03-31T14:46:36;6.93;;;2.40;;
52786;SDS011;38661;53.152;5.846;2023-03-31T14:49:24;11.13;;;2.85;;
52786;SDS011;38661;53.152;5.846;2023-03-31T14:51:53;7.03;;;3.40;;
52786;SDS011;38661;53.152;5.846;2023-03-31T14:54:20;9.00;;;3.65;;
52786;SDS011;38661;53.152;5.846;2023-03-31T14:56:47;9.27;;;3.38;;
52786;SDS011;38661;53.152;5.846;2023-03-31T14:59:21;6.72;;;2.67;;
52786;SDS011;38661;53.152;5.846;2023-03-31T15:01:53;6.20;;;1.65;;
52786;SDS011;38661;53.152;5.846;2023-03-31T15:04:22;4.45;;;1.45;;
52786;SDS011;38661;53.152;5.846;2023-03-31T15:06:52;4.63;;;1.83;;
52786;SDS011;38661;53.152;5.846;2023-03-31T15:09:36;6.25;;;1.95;;
52786;SDS011;38661;53.152;5.846;2023-03-31T15:14:35;6.75;;;1.88;;
52786;SDS011;38661;53.152;5.846;2023-03-31T15:17:15;5.30;;;1.80;;
52786;SDS011;38661;53.152;5.846;2023-03-31T15:19:53;6.40;;;2.40;;
52786;SDS011;38661;53.152;5.846;2023-03-31T15:22:22;6.40;;;2.38;;
52786;SDS011;38661;53.152;5.846;2023-03-31T15:24:50;7.60;;;2.40;;
52786;SDS011;38661;53.152;5.846;2023-03-31T15:27:29;7.57;;;2.85;;
52786;SDS011;38661;53.152;5.846;2023-03-31T15:29:55;7.15;;;3.92;;
52786;SDS011;38661;53.152;5.846;2023-03-31T15:32:29;9.05;;;2.67;;
52786;SDS011;38661;53.152;5.846;2023-03-31T15:34:58;9.25;;;2.13;;
52786;SDS011;38661;53.152;5.846;2023-03-31T15:37:26;6.00;;;2.70;;
52786;SDS011;38661;53.152;5.846;2023-03-31T15:39:57;6.63;;;2.95;;
52786;SDS011;38661;53.152;5.846;2023-03-31T15:42:25;9.90;;;4.03;;
52786;SDS011;38661;53.152;5.846;2023-03-31T15:44:53;6.90;;;2.40;;
52786;SDS011;38661;53.152;5.846;2023-03-31T15:47:47;8.63;;;2.83;;
52786;SDS011;38661;53.152;5.846;2023-03-31T15:50:17;8.30;;;3.03;;
52786;SDS011;38661;53.152;5.846;2023-03-31T15:52:50;6.18;;;2.72;;
52786;SDS011;38661;53.152;5.846;2023-03-31T15:55:30;5.43;;;2.60;;
52786;SDS011;38661;53.152;5.846;2023-03-31T15:58:04;7.22;;;2.80;;
52786;SDS011;38661;53.152;5.846;2023-03-31T16:00:41;11.95;;;6.72;;
52786;SDS011;38661;53.152;5.846;2023-03-31T16:05:49;5.97;;;2.70;;
52786;SDS011;38661;53.152;5.846;2023-03-31T16:11:37;8.68;;;3.47;;
52786;SDS011;38661;53.152;5.846;2023-03-31T16:14:06;6.82;;;3.40;;
52786;SDS011;38661;53.152;5.846;2023-03-31T16:16:37;9.13;;;2.90;;
52786;SDS011;38661;53.152;5.846;2023-03-31T16:19:05;7.13;;;2.30;;
52786;SDS011;38661;53.152;5.846;2023-03-31T16:21:42;8.65;;;4.18;;
52786;SDS011;38661;53.152;5.846;2023-03-31T16:24:11;7.32;;;3.38;;
52786;SDS011;38661;53.152;5.846;2023-03-31T16:26:38;8.38;;;4.18;;
52786;SDS011;38661;53.152;5.846;2023-03-31T16:29:05;8.90;;;3.38;;
52786;SDS011;38661;53.152;5.846;2023-03-31T16:31:32;7.57;;;3.00;;
52786;SDS011;38661;53.152;5.846;2023-03-31T16:34:05;9.07;;;3.88;;
52786;SDS011;38661;53.152;5.846;2023-03-31T16:36:32;5.32;;;3.60;;
52786;SDS011;38661;53.152;5.846;2023-03-31T16:38:58;8.60;;;4.93;;
52786;SDS011;38661;53.152;5.846;2023-03-31T16:41:27;15.23;;;10.30;;
52786;SDS011;38661;53.152;5.846;2023-03-31T16:43:53;10.63;;;7.15;;
52786;SDS011;38661;53.152;5.846;2023-03-31T16:46:20;9.23;;;6.97;;
52786;SDS011;38661;53.152;5.846;2023-03-31T16:48:46;10.05;;;6.63;;
52786;SDS011;38661;53.152;5.846;2023-03-31T16:51:12;10.18;;;5.05;;
52786;SDS011;38661;53.152;5.846;2023-03-31T16:53:38;12.45;;;7.07;;
52786;SDS011;38661;53.152;5.846;2023-03-31T16:56:05;8.23;;;4.70;;
52786;SDS011;38661;53.152;5.846;2023-03-31T16:58:32;9.18;;;3.30;;
52786;SDS011;38661;53.152;5.846;2023-03-31T17:00:59;15.45;;;9.90;;
52786;SDS011;38661;53.152;5.846;2023-03-31T17:03:25;11.10;;;6.20;;
52786;SDS011;38661;53.152;5.846;2023-03-31T17:05:52;12.55;;;5.90;;
52786;SDS011;38661;53.152;5.846;2023-03-31T17:08:19;12.15;;;6.45;;
52786;SDS011;38661;53.152;5.846;2023-03-31T17:13:42;9.07;;;3.92;;
52786;SDS011;38661;53.152;5.846;2023-03-31T17:16:08;10.07;;;4.78;;
52786;SDS011;38661;53.152;5.846;2023-03-31T17:18:35;9.93;;;4.40;;
52786;SDS011;38661;53.152;5.846;2023-03-31T17:21:02;8.23;;;5.82;;
52786;SDS011;38661;53.152;5.846;2023-03-31T17:23:32;9.38;;;5.22;;
52786;SDS011;38661;53.152;5.846;2023-03-31T17:25:58;5.95;;;2.95;;
52786;SDS011;38661;53.152;5.846;2023-03-31T17:28:24;5.00;;;3.03;;
52786;SDS011;38661;53.152;5.846;2023-03-31T17:30:51;4.47;;;1.60;;
52786;SDS011;38661;53.152;5.846;2023-03-31T17:33:16;5.53;;;2.20;;
52786;SDS011;38661;53.152;5.846;2023-03-31T17:35:42;12.60;;;6.65;;
52786;SDS011;38661;53.152;5.846;2023-03-31T17:38:08;8.68;;;5.70;;
52786;SDS011;38661;53.152;5.846;2023-03-31T17:40:37;7.25;;;5.30;;
52786;SDS011;38661;53.152;5.846;2023-03-31T17:43:02;11.00;;;4.70;;
52786;SDS011;38661;53.152;5.846;2023-03-31T17:45:28;8.20;;;4.03;;
52786;SDS011;38661;53.152;5.846;2023-03-31T17:47:55;9.52;;;4.00;;
52786;SDS011;38661;53.152;5.846;2023-03-31T17:50:20;8.98;;;4.70;;
52786;SDS011;38661;53.152;5.846;2023-03-31T17:52:46;12.35;;;5.15;;
52786;SDS011;38661;53.152;5.846;2023-03-31T17:55:12;12.50;;;5.75;;
52786;SDS011;38661;53.152;5.846;2023-03-31T17:57:38;11.18;;;5.72;;
52786;SDS011;38661;53.152;5.846;2023-03-31T18:00:05;8.73;;;5.15;;
52786;SDS011;38661;53.152;5.846;2023-03-31T18:02:37;4.20;;;2.38;;
52786;SDS011;38661;53.152;5.846;2023-03-31T18:05:04;3.17;;;1.52;;
52786;SDS011;38661;53.152;5.846;2023-03-31T18:07:32;3.45;;;1.70;;
52786;SDS011;38661;53.152;5.846;2023-03-31T18:09:58;4.13;;;2.08;;
52786;SDS011;38661;53.152;5.846;2023-03-31T18:12:24;6.25;;;1.80;;
52786;SDS011;38661;53.152;5.846;2023-03-31T18:14:53;4.18;;;1.60;;
52786;SDS011;38661;53.152;5.846;2023-03-31T18:17:20;4.63;;;1.90;;
52786;SDS011;38661;53.152;5.846;2023-03-31T18:19:46;4.82;;;2.55;;
52786;SDS011;38661;53.152;5.846;2023-03-31T18:22:12;4.47;;;2.60;;